createdAt,value
2022-10-02T00:01:23.073Z,97011.69
2022-10-02T00:03:51.201Z,97022.91
2022-10-02T00:06:23.267Z,97028.03
2022-10-02T00:08:55.396Z,97033.53
2022-10-02T00:11:24.184Z,97034.44
2022-10-02T00:13:57.507Z,97030.47
2022-10-02T00:16:30.313Z,97017.50
2022-10-02T00:18:58.970Z,97018.53
2022-10-02T00:21:38.172Z,97034.03
2022-10-02T00:24:08.932Z,97036.16
2022-10-02T00:26:40.955Z,97043.66
2022-10-02T00:29:32.182Z,97043.66
2022-10-02T00:32:13.783Z,97047.25
2022-10-02T00:34:53.575Z,97044.00
2022-10-02T00:37:33.545Z,97042.25
2022-10-02T00:40:15.364Z,97045.19
2022-10-02T00:42:55.743Z,97030.50
2022-10-02T00:45:49.914Z,97048.03
2022-10-02T00:48:40.153Z,97056.88
2022-10-02T00:51:22.594Z,97050.72
2022-10-02T00:53:59.934Z,97059.34
2022-10-02T00:56:42.115Z,97063.44
2022-10-02T00:59:30.212Z,97060.50
2022-10-02T01:02:05.885Z,97061.91
2022-10-02T01:04:36.698Z,97062.47
2022-10-02T01:07:07.368Z,97060.34
2022-10-02T01:09:35.422Z,97067.72
2022-10-02T01:12:05.085Z,97068.53
2022-10-02T01:14:34.345Z,97062.34
2022-10-02T01:17:03.751Z,97060.69
2022-10-02T01:19:38.150Z,97057.44
2022-10-02T01:22:16.581Z,97060.63
2022-10-02T01:24:50.311Z,97062.81
2022-10-02T01:27:18.175Z,97073.91
2022-10-02T01:29:49.381Z,97070.66
2022-10-02T01:32:18.036Z,97072.03
2022-10-02T01:34:46.942Z,97070.53
2022-10-02T01:37:14.700Z,97073.16
2022-10-02T01:39:42.562Z,97072.38
2022-10-02T01:42:11.631Z,97068.75
2022-10-02T01:44:39.520Z,97079.03
2022-10-02T01:47:11.752Z,97076.06
2022-10-02T01:49:54.157Z,97083.00
2022-10-02T01:52:34.379Z,97075.50
2022-10-02T01:55:17.913Z,97073.88
2022-10-02T01:58:02.898Z,97077.72
2022-10-02T02:00:45.428Z,97079.38
2022-10-02T02:03:21.426Z,97076.56
2022-10-02T02:05:54.543Z,97065.81
2022-10-02T02:08:30.305Z,97048.41
2022-10-02T02:11:07.689Z,97059.28
2022-10-02T02:13:46.005Z,97065.81
2022-10-02T02:16:22.721Z,97058.22
2022-10-02T02:18:59.040Z,97060.44
2022-10-02T02:21:31.452Z,97058.47
2022-10-02T02:24:03.911Z,97058.72
2022-10-02T02:26:31.846Z,97051.72
2022-10-02T02:29:04.394Z,97048.53
2022-10-02T02:31:38.658Z,97043.66
2022-10-02T02:34:12.476Z,97031.84
2022-10-02T02:36:45.067Z,97040.00
2022-10-02T02:39:16.416Z,97044.31
2022-10-02T02:41:50.874Z,97025.28
2022-10-02T02:44:25.863Z,97041.06
2022-10-02T02:47:05.188Z,97037.88
2022-10-02T02:49:45.551Z,97039.28
2022-10-02T02:52:18.060Z,97043.03
2022-10-02T02:54:50.252Z,97038.94
2022-10-02T02:57:22.872Z,97039.50
2022-10-02T02:59:54.887Z,97044.41
2022-10-02T03:02:22.697Z,97044.97
2022-10-02T03:04:50.464Z,97042.53
2022-10-02T03:07:18.784Z,97041.72
2022-10-02T03:09:58.078Z,97036.91
2022-10-02T03:12:38.543Z,97042.06
2022-10-02T03:15:19.207Z,97045.31
2022-10-02T03:18:09.049Z,97044.03
2022-10-02T03:20:43.604Z,97033.28
2022-10-02T03:23:25.740Z,97039.72
2022-10-02T03:25:59.915Z,97038.66
2022-10-02T03:28:54.281Z,97046.47
2022-10-02T03:31:24.551Z,97034.81
2022-10-02T03:33:53.912Z,97031.31
2022-10-02T03:36:24.571Z,97030.00
2022-10-02T03:39:19.909Z,97023.81
2022-10-02T03:41:43.797Z,97026.50
2022-10-02T03:44:11.723Z,97026.75
2022-10-02T03:46:41.147Z,97030.84
2022-10-02T03:49:08.909Z,97028.84
2022-10-02T03:51:36.585Z,97032.59
2022-10-02T03:54:07.738Z,97035.28
2022-10-02T03:56:41.445Z,97027.22
2022-10-02T03:59:16.600Z,97033.66
2022-10-02T04:01:51.615Z,97034.72
2022-10-02T04:04:24.302Z,97027.78
2022-10-02T04:06:56.860Z,97033.44
2022-10-02T04:09:30.361Z,97038.81
2022-10-02T04:12:02.739Z,97042.88
2022-10-02T04:14:39.227Z,97041.22
2022-10-02T04:17:14.548Z,97036.13
2022-10-02T04:19:46.794Z,97036.13
2022-10-02T04:22:21.799Z,97043.47
2022-10-02T04:24:57.828Z,97035.53
2022-10-02T04:27:34.467Z,97041.41
2022-10-02T04:30:06.139Z,97041.63
2022-10-02T04:32:37.597Z,97035.69
2022-10-02T04:35:13.438Z,97028.38
2022-10-02T04:37:56.922Z,97045.41
2022-10-02T04:40:37.366Z,97039.31
2022-10-02T04:43:16.625Z,97020.47
2022-10-02T04:45:59.812Z,97021.66
2022-10-02T04:49:09.621Z,97018.16
2022-10-02T04:51:51.447Z,97019.69
2022-10-02T04:54:54.295Z,97032.84
2022-10-02T04:57:38.888Z,97023.38
2022-10-02T05:00:11.006Z,97027.00
2022-10-02T05:02:46.565Z,97022.31
2022-10-02T05:05:26.221Z,97028.84
2022-10-02T05:08:23.603Z,97019.16
2022-10-02T05:11:10.328Z,97025.09
2022-10-02T05:13:54.656Z,97025.09
2022-10-02T05:16:37.566Z,97025.09
2022-10-02T05:19:21.844Z,97027.56
2022-10-02T05:22:07.510Z,97027.31
2022-10-02T05:24:51.640Z,97023.81
2022-10-02T05:27:42.976Z,97028.38
2022-10-02T05:30:13.405Z,97021.94
2022-10-02T05:33:15.593Z,97019.25
2022-10-02T05:36:00.960Z,97020.41
2022-10-02T05:38:48.635Z,97013.38
2022-10-02T05:41:23.251Z,97015.28
2022-10-02T05:43:58.661Z,97018.28
2022-10-02T05:46:28.173Z,97010.78
2022-10-02T05:49:00.271Z,97008.59
2022-10-02T05:51:36.656Z,97005.69
2022-10-02T05:54:14.882Z,97007.31
2022-10-02T05:56:48.784Z,96997.63
2022-10-02T05:59:29.873Z,96995.63
2022-10-02T06:02:03.491Z,97011.75
2022-10-02T06:04:37.068Z,97007.53
2022-10-02T06:07:09.216Z,97013.59
2022-10-02T06:09:42.240Z,97011.00
2022-10-02T06:12:15.559Z,97008.91
2022-10-02T06:14:50.696Z,97015.44
2022-10-02T06:17:25.825Z,97008.41
2022-10-02T06:20:03.384Z,97004.53
2022-10-02T06:22:36.710Z,96997.19
2022-10-02T06:25:13.416Z,97003.63
2022-10-02T06:27:46.671Z,97010.47
2022-10-02T06:30:16.752Z,96996.22
2022-10-02T06:32:52.534Z,97002.75
2022-10-02T06:35:35.832Z,97007.63
2022-10-02T06:38:22.828Z,97005.03
2022-10-02T06:41:02.446Z,96999.84
2022-10-02T06:43:58.988Z,96998.38
2022-10-02T06:46:34.566Z,96991.19
2022-10-02T06:49:09.854Z,96990.06
2022-10-02T06:51:52.687Z,96985.53
2022-10-02T06:54:35.440Z,96994.16
2022-10-02T06:57:21.496Z,96985.75
2022-10-02T07:00:03.796Z,96996.03
2022-10-02T07:02:41.898Z,96997.00
2022-10-02T07:05:45.781Z,96985.25
2022-10-02T07:08:22.023Z,96965.47
2022-10-02T07:11:00.904Z,96985.53
2022-10-02T07:13:48.058Z,96983.69
2022-10-02T07:16:33.205Z,96976.75
2022-10-02T07:19:51.454Z,96976.41
2022-10-02T07:22:44.667Z,96969.50
2022-10-02T07:25:45.075Z,96972.69
2022-10-02T07:28:19.364Z,96973.28
2022-10-02T07:30:58.668Z,96967.75
2022-10-02T07:33:40.445Z,96964.78
2022-10-02T07:36:12.916Z,96976.03
2022-10-02T07:38:58.752Z,96970.22
2022-10-02T07:41:53.201Z,96973.00
2022-10-02T07:44:35.140Z,96956.97
2022-10-02T07:47:12.215Z,96951.84
2022-10-02T07:49:50.330Z,96950.28
2022-10-02T07:52:25.711Z,96953.22
2022-10-02T07:55:07.311Z,96955.41
2022-10-02T07:57:41.771Z,96948.38
2022-10-02T08:00:15.199Z,96950.88
2022-10-02T08:02:53.289Z,96954.63
2022-10-02T08:05:24.538Z,96962.13
2022-10-02T08:07:57.930Z,96968.66
2022-10-02T08:10:28.882Z,96965.44
2022-10-02T08:13:06.066Z,96954.94
2022-10-02T08:15:38.601Z,96952.75
2022-10-02T08:18:34.638Z,96940.22
2022-10-02T08:21:03.938Z,96942.34
2022-10-02T08:23:38.422Z,96949.72
2022-10-02T08:26:10.835Z,96948.91
2022-10-02T08:28:44.106Z,96954.88
2022-10-02T08:31:13.525Z,96953.00
2022-10-02T08:33:43.510Z,96943.50
2022-10-02T08:36:38.842Z,96947.78
2022-10-02T08:39:22.913Z,96954.03
2022-10-02T08:42:27.159Z,96960.75
2022-10-02T08:45:35.441Z,96947.22
2022-10-02T08:48:43.655Z,96955.78
2022-10-02T08:51:47.019Z,96954.34
2022-10-02T08:54:38.681Z,96956.22
2022-10-02T08:57:37.772Z,96957.47
2022-10-02T09:00:14.430Z,96953.66
2022-10-02T09:03:24.690Z,96957.66
2022-10-02T09:06:38.611Z,96953.31
2022-10-02T09:09:55.413Z,96964.09
2022-10-02T09:12:58.953Z,96952.78
2022-10-02T09:15:41.348Z,96944.09
2022-10-02T09:18:17.922Z,96949.34
2022-10-02T09:21:24.140Z,96945.22
2022-10-02T09:24:39.257Z,96955.56
2022-10-02T09:27:54.838Z,96959.41
2022-10-02T09:30:40.450Z,96956.19
2022-10-02T09:33:43.419Z,96951.47
2022-10-02T09:36:52.064Z,96952.72
2022-10-02T09:39:51.647Z,96951.00
2022-10-02T09:42:55.587Z,96957.41
2022-10-02T09:46:14.443Z,96963.06
2022-10-02T09:49:14.607Z,96953.25
2022-10-02T09:52:19.090Z,96947.53
2022-10-02T09:55:18.766Z,96947.41
2022-10-02T09:58:20.010Z,96952.16
2022-10-02T10:01:12.008Z,96954.03
2022-10-02T10:04:14.441Z,96953.50
2022-10-02T10:07:07.685Z,96955.56
2022-10-02T10:10:12.740Z,96955.44
2022-10-02T10:13:07.501Z,96956.88
2022-10-02T10:16:04.210Z,96955.44
2022-10-02T10:19:03.226Z,96951.13
2022-10-02T10:21:58.372Z,96951.41
2022-10-02T10:25:05.115Z,96960.13
2022-10-02T10:27:50.899Z,96958.06
2022-10-02T10:31:10.318Z,96957.38
2022-10-02T10:34:07.494Z,96947.81
2022-10-02T10:37:13.077Z,96935.38
2022-10-02T10:40:15.691Z,96934.69
2022-10-02T10:43:07.038Z,96929.06
2022-10-02T10:45:54.064Z,96927.22
2022-10-02T10:48:40.795Z,96932.69
2022-10-02T10:51:33.662Z,96944.91
2022-10-02T10:54:34.414Z,96934.94
2022-10-02T10:57:09.946Z,96937.97
2022-10-02T11:00:03.547Z,96937.56
2022-10-02T11:03:08.519Z,96930.63
2022-10-02T11:06:17.838Z,96923.66
2022-10-02T11:09:30.099Z,96916.16
2022-10-02T11:12:41.272Z,96916.09
2022-10-02T11:15:42.113Z,96899.59
2022-10-02T11:18:24.425Z,96904.56
2022-10-02T11:21:11.775Z,96909.69
2022-10-02T11:23:55.071Z,96907.31
2022-10-02T11:26:47.563Z,96904.16
2022-10-02T11:29:57.777Z,96899.03
2022-10-02T11:32:59.142Z,96892.00
2022-10-02T11:35:48.304Z,96882.56
2022-10-02T11:38:35.439Z,96878.94
2022-10-02T11:41:33.318Z,96879.44
2022-10-02T11:44:13.838Z,96877.81
2022-10-02T11:47:20.234Z,96870.50
2022-10-02T11:50:29.112Z,96889.28
2022-10-02T11:53:29.294Z,96876.53
2022-10-02T11:56:10.282Z,96863.59
2022-10-02T11:58:54.914Z,96867.81
2022-10-02T12:01:32.537Z,96856.13
2022-10-02T12:04:26.074Z,96854.91
2022-10-02T12:07:13.270Z,96855.00
2022-10-02T12:09:55.174Z,96845.66
2022-10-02T12:12:38.532Z,96860.88
2022-10-02T12:15:14.960Z,96857.22
2022-10-02T12:17:53.281Z,96858.00
2022-10-02T12:20:55.621Z,96863.84
2022-10-02T12:23:52.101Z,96860.63
2022-10-02T12:26:55.043Z,96852.06
2022-10-02T12:29:35.365Z,96842.31
2022-10-02T12:32:13.675Z,96831.63
2022-10-02T12:34:53.675Z,96840.53
2022-10-02T12:37:31.599Z,96825.25
2022-10-02T12:40:08.459Z,96823.75
2022-10-02T12:43:05.309Z,96816.44
2022-10-02T12:46:10.219Z,96821.50
2022-10-02T12:49:00.875Z,96820.09
2022-10-02T12:51:37.162Z,96817.78
2022-10-02T12:54:58.595Z,96812.81
2022-10-02T12:57:56.199Z,96806.84
2022-10-02T13:00:26.991Z,96795.81
2022-10-02T13:03:29.435Z,96802.88
2022-10-02T13:06:14.945Z,96809.59
2022-10-02T13:09:18.724Z,96810.09
2022-10-02T13:12:05.271Z,96786.06
2022-10-02T13:15:02.766Z,96799.53
2022-10-02T13:17:39.561Z,96785.69
2022-10-02T13:20:20.624Z,96801.34
2022-10-02T13:23:00.963Z,96791.16
2022-10-02T13:25:42.846Z,96795.19
2022-10-02T13:28:43.554Z,96792.19
2022-10-02T13:31:23.188Z,96796.47
2022-10-02T13:34:11.828Z,96792.25
2022-10-02T13:36:52.627Z,96795.00
2022-10-02T13:39:43.782Z,96797.84
2022-10-02T13:42:28.973Z,96793.00
2022-10-02T13:45:10.269Z,96803.53
2022-10-02T13:47:43.989Z,96788.66
2022-10-02T13:50:26.048Z,96789.25
2022-10-02T13:53:02.481Z,96797.72
2022-10-02T13:55:33.714Z,96790.75
2022-10-02T13:58:25.021Z,96796.28
2022-10-02T14:01:08.536Z,96789.47
2022-10-02T14:03:56.447Z,96782.66
2022-10-02T14:06:28.996Z,96783.75
2022-10-02T14:09:08.241Z,96781.44
2022-10-02T14:11:53.791Z,96786.75
2022-10-02T14:14:35.811Z,96786.81
2022-10-02T14:17:15.066Z,96779.47
2022-10-02T14:19:57.988Z,96785.84
2022-10-02T14:22:37.061Z,96793.53
2022-10-02T14:25:22.707Z,96791.19
2022-10-02T14:28:04.366Z,96785.88
2022-10-02T14:30:50.799Z,96787.03
2022-10-02T14:33:31.033Z,96775.94
2022-10-02T14:36:08.111Z,96780.56
2022-10-02T14:38:41.971Z,96772.19
2022-10-02T14:41:34.642Z,96767.13
2022-10-02T14:44:29.111Z,96761.44
2022-10-02T14:47:17.437Z,96765.19
2022-10-02T14:50:03.724Z,96759.44
2022-10-02T14:53:12.942Z,96759.00
2022-10-02T14:56:17.314Z,96752.78
2022-10-02T14:58:58.041Z,96770.34
2022-10-02T15:01:27.267Z,96762.31
2022-10-02T15:04:29.760Z,96772.41
2022-10-02T15:07:04.339Z,96773.22
2022-10-02T15:09:41.219Z,96791.13
2022-10-02T15:12:15.057Z,96790.69
2022-10-02T15:14:55.827Z,96789.59
2022-10-02T15:17:56.368Z,96795.63
2022-10-02T15:20:50.559Z,96791.84
2022-10-02T15:23:41.492Z,96794.91
2022-10-02T15:26:36.577Z,96785.47
2022-10-02T15:29:18.489Z,96786.41
2022-10-02T15:32:14.455Z,96799.13
2022-10-02T15:34:47.283Z,96789.88
2022-10-02T15:37:25.182Z,96787.94
2022-10-02T15:40:10.893Z,96798.59
2022-10-02T15:42:58.583Z,96801.84
2022-10-02T15:45:54.469Z,96804.09
2022-10-02T15:48:52.633Z,96816.53
2022-10-02T15:51:39.522Z,96808.19
2022-10-02T15:54:19.229Z,96805.81
2022-10-02T15:57:08.624Z,96816.09
2022-10-02T15:59:50.814Z,96824.25
2022-10-02T16:02:23.895Z,96834.06
2022-10-02T16:05:08.304Z,96831.06
2022-10-02T16:07:57.616Z,96839.00
2022-10-02T16:10:27.038Z,96840.03
2022-10-02T16:13:12.595Z,96839.78
2022-10-02T16:15:52.180Z,96853.63
2022-10-02T16:18:37.231Z,96861.97
2022-10-02T16:21:39.869Z,96873.59
2022-10-02T16:24:34.449Z,96862.50
2022-10-02T16:27:26.115Z,96867.63
2022-10-02T16:30:05.301Z,96877.09
2022-10-02T16:32:42.747Z,96878.47
2022-10-02T16:35:24.159Z,96883.88
2022-10-02T16:38:00.741Z,96894.16
2022-10-02T16:40:41.056Z,96903.09
2022-10-02T16:43:38.059Z,96897.41
2022-10-02T16:46:11.901Z,96899.81
2022-10-02T16:48:49.000Z,96904.72
2022-10-02T16:51:32.310Z,96907.94
2022-10-02T16:54:12.569Z,96903.59
2022-10-02T16:56:45.979Z,96904.69
2022-10-02T16:59:17.219Z,96920.66
2022-10-02T17:02:13.155Z,96923.34
2022-10-02T17:04:46.126Z,96926.28
2022-10-02T17:07:29.797Z,96930.84
2022-10-02T17:10:07.235Z,96929.41
2022-10-02T17:12:45.117Z,96936.19
2022-10-02T17:15:22.218Z,96940.28
2022-10-02T17:18:06.257Z,96949.81
2022-10-02T17:20:41.667Z,96956.81
2022-10-02T17:23:17.156Z,96946.78
2022-10-02T17:25:51.775Z,96942.94
2022-10-02T17:28:26.450Z,96955.44
2022-10-02T17:31:13.349Z,96954.00
2022-10-02T17:33:47.876Z,96953.34
2022-10-02T17:36:23.678Z,96961.66
2022-10-02T17:39:04.658Z,96959.88
2022-10-02T17:41:52.634Z,96966.34
2022-10-02T17:44:36.923Z,96972.19
2022-10-02T17:47:25.163Z,96983.63
2022-10-02T17:50:07.774Z,96978.19
2022-10-02T17:53:01.756Z,96981.38
2022-10-02T17:56:30.399Z,96989.38
2022-10-02T17:59:36.523Z,96985.66
2022-10-02T18:02:17.524Z,96967.94
2022-10-02T18:04:59.236Z,96964.13
2022-10-02T18:07:40.654Z,96965.81
2022-10-02T18:10:18.275Z,96965.88
2022-10-02T18:13:14.962Z,96968.03
2022-10-02T18:16:08.223Z,96970.31
2022-10-02T18:18:41.413Z,96972.06
2022-10-02T18:21:22.082Z,96974.00
2022-10-02T18:24:21.068Z,96969.63
2022-10-02T18:27:02.060Z,96979.75
2022-10-02T18:29:41.200Z,96978.06
2022-10-02T18:32:26.437Z,96977.09
2022-10-02T18:35:07.324Z,96997.09
2022-10-02T18:37:53.653Z,96996.47
2022-10-02T18:40:28.480Z,97000.94
2022-10-02T18:43:22.484Z,96991.75
2022-10-02T18:46:00.922Z,96984.31
2022-10-02T18:48:51.675Z,96982.38
2022-10-02T18:51:37.801Z,96984.59
2022-10-02T18:54:24.451Z,96993.06
2022-10-02T18:57:05.416Z,96995.81
2022-10-02T18:59:42.781Z,96992.47
2022-10-02T19:02:26.278Z,96994.47
2022-10-02T19:05:07.504Z,97008.09
2022-10-02T19:07:41.858Z,97011.72
2022-10-02T19:10:29.291Z,97011.25
2022-10-02T19:13:02.530Z,97016.97
2022-10-02T19:15:33.172Z,97017.78
2022-10-02T19:18:03.485Z,97013.00
2022-10-02T19:20:50.193Z,97013.59
2022-10-02T19:23:37.322Z,97024.78
2022-10-02T19:26:15.789Z,97021.53
2022-10-02T19:28:48.459Z,97026.28
2022-10-02T19:31:22.634Z,97023.00
2022-10-02T19:33:54.117Z,97016.72
2022-10-02T19:36:25.242Z,97024.47
2022-10-02T19:38:56.907Z,97019.75
2022-10-02T19:41:25.201Z,97012.66
2022-10-02T19:44:00.028Z,97016.31
2022-10-02T19:46:35.493Z,97015.59
2022-10-02T19:49:03.843Z,97024.47
2022-10-02T19:51:43.753Z,97022.34
2022-10-02T19:54:17.412Z,97029.13
2022-10-02T19:56:46.247Z,97019.22
2022-10-02T19:59:18.946Z,97033.44
2022-10-02T20:01:51.866Z,97035.06
2022-10-02T20:04:21.763Z,97043.72
2022-10-02T20:06:53.834Z,97040.63
2022-10-02T20:09:25.063Z,97038.09
2022-10-02T20:11:55.952Z,97041.22
2022-10-02T20:14:29.311Z,97031.31
2022-10-02T20:17:10.965Z,97052.44
2022-10-02T20:19:45.231Z,97052.44
2022-10-02T20:22:22.786Z,97050.72
2022-10-02T20:24:55.749Z,97052.53
2022-10-02T20:27:34.821Z,97058.19
2022-10-02T20:30:08.172Z,97060.44
2022-10-02T20:32:39.734Z,97066.69
2022-10-02T20:35:15.704Z,97064.91
2022-10-02T20:37:46.615Z,97065.06
2022-10-02T20:40:17.572Z,97064.34
2022-10-02T20:42:53.257Z,97074.28
2022-10-02T20:45:28.104Z,97067.94
2022-10-02T20:48:49.547Z,97074.56
2022-10-02T20:51:29.629Z,97069.19
2022-10-02T20:54:25.115Z,97081.00
2022-10-02T20:57:43.447Z,97083.72
2022-10-02T21:00:19.042Z,97086.78
2022-10-02T21:03:18.457Z,97094.63
2022-10-02T21:06:26.974Z,97107.75
2022-10-02T21:09:36.542Z,97112.06
2022-10-02T21:12:36.929Z,97102.59
2022-10-02T21:15:32.041Z,97104.72
2022-10-02T21:18:16.514Z,97103.06
2022-10-02T21:21:03.432Z,97104.22
2022-10-02T21:23:50.741Z,97111.16
2022-10-02T21:26:52.597Z,97108.13
2022-10-02T21:29:44.512Z,97112.53
2022-10-02T21:32:31.091Z,97114.25
2022-10-02T21:35:14.184Z,97119.50
2022-10-02T21:37:58.547Z,97116.28
2022-10-02T21:41:08.135Z,97121.69
2022-10-02T21:44:22.447Z,97112.44
2022-10-02T21:47:27.344Z,97113.38
2022-10-02T21:50:30.041Z,97117.91
2022-10-02T21:53:39.740Z,97122.09
2022-10-02T21:56:42.934Z,97122.44
2022-10-02T21:59:35.231Z,97125.38
2022-10-02T22:03:04.433Z,97128.34
2022-10-02T22:06:07.683Z,97122.69
2022-10-02T22:08:51.512Z,97133.72
2022-10-02T22:11:27.094Z,97129.97
2022-10-02T22:14:01.053Z,97126.31
2022-10-02T22:16:38.999Z,97135.34
2022-10-02T22:19:20.485Z,97120.63
2022-10-02T22:22:04.028Z,97128.34
2022-10-02T22:24:55.907Z,97129.97
2022-10-02T22:27:47.623Z,97116.41
2022-10-02T22:30:24.405Z,97129.84
2022-10-02T22:33:13.573Z,97125.53
2022-10-02T22:36:07.578Z,97133.72
2022-10-02T22:38:38.918Z,97127.72
2022-10-02T22:41:18.153Z,97133.50
2022-10-02T22:43:50.544Z,97123.91
2022-10-02T22:46:29.401Z,97133.63
2022-10-02T22:49:02.133Z,97133.50
2022-10-02T22:51:38.002Z,97142.25
2022-10-02T22:54:22.715Z,97147.41
2022-10-02T22:56:58.673Z,97150.31
2022-10-02T22:59:32.805Z,97157.81
2022-10-02T23:02:10.638Z,97157.81
2022-10-02T23:04:45.004Z,97159.91
2022-10-02T23:07:17.181Z,97164.28
2022-10-02T23:09:51.596Z,97167.53
2022-10-02T23:12:27.930Z,97167.63
2022-10-02T23:15:06.663Z,97170.88
2022-10-02T23:17:40.953Z,97179.19
2022-10-02T23:20:16.980Z,97169.03
2022-10-02T23:22:54.402Z,97172.69
2022-10-02T23:25:32.121Z,97192.81
2022-10-02T23:28:06.692Z,97195.03
2022-10-02T23:30:39.896Z,97189.22
2022-10-02T23:33:23.162Z,97196.59
2022-10-02T23:35:56.217Z,97201.25
2022-10-02T23:38:32.174Z,97204.41
2022-10-02T23:41:25.632Z,97205.94
2022-10-02T23:44:05.240Z,97201.28
2022-10-02T23:46:38.612Z,97213.78
2022-10-02T23:49:10.193Z,97208.97
2022-10-02T23:51:53.095Z,97218.09
2022-10-02T23:54:37.439Z,97210.59
2022-10-02T23:57:38.851Z,97211.78
